createdAt,value
2018-06-16T00:00:42.366Z,97.40
2018-06-16T00:03:15.656Z,97.30
2018-06-16T00:05:44.725Z,97.30
2018-06-16T00:08:20.853Z,96.60
2018-06-16T00:10:49.684Z,96.80
2018-06-16T00:13:18.831Z,97.20
2018-06-16T00:15:47.607Z,97.30
2018-06-16T00:18:24.170Z,96.60
2018-06-16T00:20:53.661Z,96.70
2018-06-16T00:23:23.821Z,96.50
2018-06-16T00:25:52.713Z,96.80
2018-06-16T00:28:29.289Z,97.00
2018-06-16T00:30:58.149Z,96.60
2018-06-16T00:33:27.220Z,97.20
2018-06-16T00:35:56.175Z,96.50
2018-06-16T00:38:32.203Z,97.00
2018-06-16T00:41:01.149Z,97.20
2018-06-16T00:43:31.180Z,97.40
2018-06-16T00:46:00.136Z,97.20
2018-06-16T00:48:32.831Z,96.80
2018-06-16T00:51:02.622Z,96.60
2018-06-16T00:53:35.338Z,97.10
2018-06-16T00:56:04.186Z,97.40
2018-06-16T00:58:36.698Z,97.10
2018-06-16T01:01:06.154Z,97.10
2018-06-16T01:03:42.146Z,97.10
2018-06-16T01:08:46.266Z,97.00
2018-06-16T01:11:15.635Z,97.40
2018-06-16T01:13:44.776Z,97.70
2018-06-16T01:16:13.575Z,98.00
2018-06-16T01:18:45.419Z,97.80
2018-06-16T01:21:14.486Z,97.70
2018-06-16T01:23:50.434Z,98.10
2018-06-16T01:26:19.650Z,97.80
2018-06-16T01:28:49.563Z,97.30
2018-06-16T01:31:18.331Z,97.80
2018-06-16T01:33:55.233Z,98.00
2018-06-16T01:36:24.007Z,97.80
2018-06-16T01:38:56.129Z,98.40
2018-06-16T01:41:25.011Z,98.10
2018-06-16T01:43:56.678Z,98.40
2018-06-16T01:46:25.423Z,98.30
2018-06-16T01:48:58.537Z,98.00
2018-06-16T01:54:03.800Z,98.60
2018-06-16T01:56:32.541Z,98.70
2018-06-16T01:59:02.574Z,98.80
2018-06-16T02:01:31.326Z,98.10
2018-06-16T02:04:07.680Z,98.00
2018-06-16T02:06:36.484Z,98.30
2018-06-16T02:09:09.785Z,98.20
2018-06-16T02:11:38.942Z,98.20
2018-06-16T02:14:11.792Z,98.60
2018-06-16T02:19:12.620Z,98.40
2018-06-16T02:21:41.404Z,98.70
2018-06-16T02:24:15.236Z,99.30
2018-06-16T02:26:44.376Z,98.90
2018-06-16T02:29:16.453Z,99.00
2018-06-16T02:31:45.226Z,98.60
2018-06-16T02:34:18.718Z,99.30
2018-06-16T02:36:47.699Z,99.00
2018-06-16T02:39:20.065Z,99.10
2018-06-16T02:41:48.901Z,99.40
2018-06-16T02:44:25.422Z,99.30
2018-06-16T02:46:54.320Z,99.40
2018-06-16T02:49:24.944Z,98.90
2018-06-16T02:51:53.677Z,98.90
2018-06-16T02:54:25.907Z,99.60
2018-06-16T02:56:56.138Z,99.40
2018-06-16T02:59:28.914Z,99.70
2018-06-16T03:01:58.717Z,99.20
2018-06-16T03:04:30.683Z,99.30
2018-06-16T03:06:59.469Z,99.60
2018-06-16T03:09:31.774Z,99.20
2018-06-16T03:12:01.012Z,99.10
2018-06-16T03:14:33.583Z,99.80
2018-06-16T03:17:02.388Z,99.40
2018-06-16T03:19:38.932Z,99.90
2018-06-16T03:22:07.723Z,99.30
2018-06-16T03:24:38.184Z,99.90
2018-06-16T03:27:07.403Z,99.80
2018-06-16T03:29:43.751Z,99.90
2018-06-16T03:32:12.539Z,99.90
2018-06-16T03:34:42.218Z,99.90
2018-06-16T03:37:11.388Z,99.90
2018-06-16T03:39:47.839Z,99.90
2018-06-16T03:42:17.463Z,99.80
2018-06-16T03:44:47.058Z,99.80
2018-06-16T03:47:15.823Z,99.70
2018-06-16T03:49:52.547Z,99.90
2018-06-16T03:52:21.562Z,99.90
2018-06-16T03:54:50.573Z,99.90
2018-06-16T03:57:19.829Z,99.90
2018-06-16T03:59:53.613Z,99.90
2018-06-16T04:02:22.455Z,99.90
2018-06-16T04:04:58.712Z,99.90
2018-06-16T04:07:27.580Z,99.90
2018-06-16T04:09:58.096Z,99.90
2018-06-16T04:12:27.134Z,99.90
2018-06-16T04:14:59.941Z,99.90
2018-06-16T04:17:28.697Z,99.90
2018-06-16T04:20:05.598Z,99.90
2018-06-16T04:22:34.305Z,99.90
2018-06-16T04:25:04.262Z,99.90
2018-06-16T04:27:33.021Z,99.90
2018-06-16T04:30:09.570Z,99.90
2018-06-16T04:32:38.338Z,99.90
2018-06-16T04:35:08.933Z,99.90
2018-06-16T04:37:37.614Z,99.90
2018-06-16T04:40:11.508Z,99.80
2018-06-16T04:42:40.247Z,99.90
2018-06-16T04:45:13.286Z,99.60
2018-06-16T04:47:42.281Z,99.90
2018-06-16T04:50:15.391Z,99.70
2018-06-16T04:52:44.335Z,99.90
2018-06-16T04:55:16.877Z,99.90
2018-06-16T04:57:45.647Z,99.90
2018-06-16T05:00:22.287Z,99.90
2018-06-16T05:02:51.262Z,99.90
2018-06-16T05:05:23.623Z,99.90
2018-06-16T05:07:52.404Z,99.90
2018-06-16T05:10:22.647Z,99.90
2018-06-16T05:12:51.389Z,99.90
2018-06-16T05:15:28.068Z,99.90
2018-06-16T05:17:56.798Z,99.90
2018-06-16T05:20:28.698Z,99.90
2018-06-16T05:22:57.596Z,99.90
2018-06-16T05:25:30.148Z,99.90
2018-06-16T05:27:59.176Z,99.90
2018-06-16T05:30:31.565Z,99.90
2018-06-16T05:33:00.276Z,99.90
2018-06-16T05:35:32.447Z,99.90
2018-06-16T05:38:01.217Z,99.90
2018-06-16T05:40:37.497Z,99.90
2018-06-16T05:43:06.516Z,99.90
2018-06-16T05:45:37.332Z,99.90
2018-06-16T05:48:06.189Z,99.90
2018-06-16T05:50:39.341Z,99.90
2018-06-16T05:53:08.063Z,99.90
2018-06-16T05:55:44.968Z,99.90
2018-06-16T05:58:13.798Z,99.90
2018-06-16T06:00:43.703Z,99.60
2018-06-16T06:03:12.526Z,99.70
2018-06-16T06:05:45.172Z,99.60
2018-06-16T06:08:14.193Z,99.60
2018-06-16T06:10:50.254Z,99.50
2018-06-16T06:13:19.327Z,99.10
2018-06-16T06:15:49.972Z,99.10
2018-06-16T06:18:18.832Z,98.50
2018-06-16T06:20:52.093Z,98.70
2018-06-16T06:23:20.843Z,98.50
2018-06-16T06:25:53.702Z,98.60
2018-06-16T06:28:23.220Z,99.40
2018-06-16T06:30:59.840Z,98.30
2018-06-16T06:33:28.652Z,98.50
2018-06-16T06:35:58.787Z,98.30
2018-06-16T06:38:27.976Z,98.60
2018-06-16T06:41:03.889Z,97.60
2018-06-16T06:43:32.977Z,97.50
2018-06-16T06:46:03.373Z,97.00
2018-06-16T06:48:32.232Z,97.60
2018-06-16T06:51:05.830Z,97.50
2018-06-16T06:53:35.283Z,98.20
2018-06-16T06:56:07.369Z,98.90
2018-06-16T06:58:36.404Z,98.20
2018-06-16T07:01:12.763Z,96.60
2018-06-16T07:03:41.722Z,96.80
2018-06-16T07:06:14.087Z,96.30
2018-06-16T07:10:12.437Z,96.30
2018-06-16T07:12:42.734Z,96.20
2018-06-16T07:15:19.894Z,96.30
2018-06-16T07:17:49.080Z,96.50
2018-06-16T07:20:19.124Z,96.00
2018-06-16T07:22:48.214Z,96.00
2018-06-16T07:25:21.525Z,95.10
2018-06-16T07:27:51.003Z,95.60
2018-06-16T07:30:23.730Z,95.20
2018-06-16T07:32:54.198Z,95.50
2018-06-16T07:35:25.750Z,95.10
2018-06-16T07:37:54.648Z,95.60
2018-06-16T07:40:28.670Z,95.80
2018-06-16T07:42:57.565Z,96.20
2018-06-16T07:45:29.817Z,95.90
2018-06-16T07:47:59.159Z,95.60
2018-06-16T07:50:35.309Z,96.20
2018-06-16T07:53:04.064Z,96.30
2018-06-16T07:55:34.275Z,96.40
2018-06-16T07:58:03.034Z,96.40
2018-06-16T08:00:41.680Z,96.60
2018-06-16T08:03:10.468Z,96.10
2018-06-16T08:05:40.305Z,96.70
2018-06-16T08:08:09.686Z,96.90
2018-06-16T08:10:40.134Z,97.60
2018-06-16T08:13:10.217Z,97.10
2018-06-16T08:15:42.464Z,96.10
2018-06-16T08:18:11.953Z,96.20
2018-06-16T08:20:46.192Z,95.70
2018-06-16T08:23:16.008Z,94.70
2018-06-16T08:25:49.168Z,95.50
2018-06-16T08:28:20.507Z,95.80
2018-06-16T08:30:50.781Z,95.90
2018-06-16T08:33:19.586Z,96.30
2018-06-16T08:35:55.906Z,96.50
2018-06-16T08:38:25.076Z,97.40
2018-06-16T08:40:54.133Z,97.60
2018-06-16T08:43:24.315Z,97.00
2018-06-16T08:45:55.682Z,97.50
2018-06-16T08:48:25.168Z,97.30
2018-06-16T08:50:57.448Z,96.40
2018-06-16T08:53:26.809Z,96.50
2018-06-16T08:55:59.573Z,94.80
2018-06-16T08:58:28.485Z,94.80
2018-06-16T09:01:01.898Z,94.30
2018-06-16T09:06:15.571Z,94.90
2018-06-16T09:08:47.188Z,94.30
2018-06-16T09:11:18.400Z,93.10
2018-06-16T09:13:48.279Z,94.00
2018-06-16T09:16:18.375Z,92.90
2018-06-16T09:18:47.634Z,93.20
2018-06-16T09:21:16.428Z,91.70
2018-06-16T09:23:45.390Z,92.70
2018-06-16T09:26:14.149Z,91.00
2018-06-16T09:28:43.312Z,91.90
2018-06-16T09:31:15.315Z,91.20
2018-06-16T09:33:44.305Z,91.30
2018-06-16T09:36:20.448Z,91.20
2018-06-16T09:38:50.330Z,90.00
2018-06-16T09:41:19.237Z,87.20
2018-06-16T09:43:48.438Z,85.90
2018-06-16T09:46:21.344Z,85.80
2018-06-16T09:48:50.408Z,87.70
2018-06-16T09:51:23.290Z,87.70
2018-06-16T09:53:52.465Z,84.20
2018-06-16T09:56:25.421Z,85.40
2018-06-16T09:58:54.427Z,85.80
2018-06-16T10:01:30.199Z,87.10
2018-06-16T10:03:59.476Z,88.00
2018-06-16T10:06:29.389Z,89.30
2018-06-16T10:08:59.483Z,88.50
2018-06-16T10:11:32.267Z,90.60
2018-06-16T10:14:01.607Z,90.30
2018-06-16T10:16:33.885Z,90.10
2018-06-16T10:19:02.746Z,90.30
2018-06-16T10:21:36.494Z,89.90
2018-06-16T10:24:06.653Z,88.80
2018-06-16T10:26:39.198Z,89.40
2018-06-16T10:29:09.184Z,91.60
2018-06-16T10:31:38.444Z,89.00
2018-06-16T10:34:08.536Z,86.50
2018-06-16T10:36:42.263Z,88.20
2018-06-16T10:39:11.908Z,89.40
2018-06-16T10:41:43.141Z,87.90
2018-06-16T10:44:13.204Z,90.00
2018-06-16T10:46:45.538Z,91.10
2018-06-16T10:49:15.384Z,91.20
2018-06-16T10:51:48.909Z,91.00
2018-06-16T10:54:17.803Z,90.70
2018-06-16T10:56:49.618Z,91.10
2018-06-16T10:59:19.608Z,91.80
2018-06-16T11:01:52.555Z,92.20
2018-06-16T11:04:23.405Z,91.70
2018-06-16T11:06:57.146Z,92.80
2018-06-16T11:09:26.203Z,94.40
2018-06-16T11:14:28.924Z,90.90
2018-06-16T11:16:59.091Z,93.90
2018-06-16T11:19:28.177Z,92.70
2018-06-16T11:22:00.976Z,89.90
2018-06-16T11:24:30.245Z,90.30
2018-06-16T11:27:04.173Z,86.70
2018-06-16T11:29:33.147Z,85.40
2018-06-16T11:32:05.961Z,86.40
2018-06-16T11:34:35.372Z,87.60
2018-06-16T11:39:36.180Z,85.90
2018-06-16T11:42:12.324Z,86.80
2018-06-16T11:44:42.588Z,88.90
2018-06-16T11:47:15.773Z,89.20
2018-06-16T11:49:45.702Z,90.10
2018-06-16T11:52:15.369Z,91.30
2018-06-16T11:54:46.236Z,91.80
2018-06-16T11:57:17.184Z,92.80
2018-06-16T11:59:46.735Z,92.50
2018-06-16T12:02:19.645Z,92.20
2018-06-16T12:04:48.697Z,93.20
2018-06-16T12:10:10.457Z,93.00
2018-06-16T12:12:39.600Z,91.50
2018-06-16T12:15:08.431Z,90.50
2018-06-16T12:17:37.265Z,92.20
2018-06-16T12:20:06.665Z,91.00
2018-06-16T12:22:36.267Z,91.90
2018-06-16T12:25:05.719Z,89.70
2018-06-16T12:27:35.307Z,89.70
2018-06-16T12:30:09.328Z,91.40
2018-06-16T12:32:42.439Z,90.50
2018-06-16T12:35:11.191Z,90.50
2018-06-16T12:40:12.512Z,89.50
2018-06-16T12:42:53.290Z,91.80
2018-06-16T12:45:35.551Z,90.20
2018-06-16T12:48:04.682Z,89.90
2018-06-16T12:50:41.041Z,90.60
2018-06-16T12:53:10.378Z,90.80
2018-06-16T12:55:56.754Z,89.50
2018-06-16T12:58:31.380Z,90.30
2018-06-16T13:01:01.569Z,88.80
2018-06-16T13:03:31.177Z,89.10
2018-06-16T13:06:00.258Z,90.20
2018-06-16T13:08:29.880Z,86.90
2018-06-16T13:10:59.478Z,88.30
2018-06-16T13:13:28.455Z,87.70
2018-06-16T13:15:57.300Z,87.70
2018-06-16T13:18:29.965Z,88.50
2018-06-16T13:20:58.858Z,88.90
2018-06-16T13:23:27.737Z,90.30
2018-06-16T13:25:57.115Z,91.30
2018-06-16T13:28:28.447Z,91.30
2018-06-16T13:30:57.307Z,91.30
2018-06-16T13:33:27.218Z,93.10
2018-06-16T13:36:06.952Z,91.30
2018-06-16T13:41:28.338Z,93.40
2018-06-16T13:44:02.489Z,92.50
2018-06-16T13:46:31.733Z,92.80
2018-06-16T13:51:49.236Z,93.80
2018-06-16T13:54:18.443Z,94.00
2018-06-16T13:56:55.900Z,94.00
2018-06-16T13:59:24.678Z,94.00
2018-06-16T14:01:54.999Z,95.00
2018-06-16T14:07:13.047Z,93.70
2018-06-16T14:09:43.925Z,94.60
2018-06-16T14:12:16.085Z,94.30
2018-06-16T14:14:47.019Z,94.30
2018-06-16T14:17:18.809Z,94.10
2018-06-16T14:19:49.951Z,94.80
2018-06-16T14:22:28.581Z,94.40
2018-06-16T14:25:00.580Z,94.10
2018-06-16T14:27:30.425Z,94.30
2018-06-16T14:29:59.810Z,95.70
2018-06-16T14:32:29.236Z,95.20
2018-06-16T14:34:58.170Z,95.50
2018-06-16T14:37:30.586Z,97.20
2018-06-16T14:40:00.203Z,97.80
2018-06-16T14:42:29.070Z,98.70
2018-06-16T14:44:57.986Z,99.10
2018-06-16T14:47:28.616Z,99.10
2018-06-16T14:49:58.624Z,99.30
2018-06-16T14:52:42.695Z,99.20
2018-06-16T14:55:12.797Z,98.80
2018-06-16T14:57:42.487Z,98.70
2018-06-16T15:00:50.180Z,99.90
2018-06-16T15:03:19.467Z,99.60
2018-06-16T15:08:37.238Z,97.60
2018-06-16T15:11:06.101Z,96.30
2018-06-16T15:13:56.339Z,96.60
2018-06-16T15:16:26.760Z,96.00
2018-06-16T15:19:10.625Z,97.10
2018-06-16T15:21:50.129Z,96.50
2018-06-16T15:24:21.848Z,96.00
2018-06-16T15:26:51.105Z,97.20
2018-06-16T15:29:34.383Z,95.00
2018-06-16T15:32:03.782Z,95.10
2018-06-16T15:34:32.692Z,95.30
2018-06-16T15:37:01.706Z,95.80
2018-06-16T15:39:30.718Z,95.80
2018-06-16T15:41:59.499Z,95.60
2018-06-16T15:44:28.648Z,96.30
2018-06-16T15:46:57.973Z,96.40
2018-06-16T15:49:26.769Z,96.30
2018-06-16T15:51:57.159Z,96.90
2018-06-16T15:54:27.317Z,96.70
2018-06-16T15:56:57.993Z,96.30
2018-06-16T15:59:27.216Z,96.80
2018-06-16T16:01:59.701Z,96.00
2018-06-16T16:04:31.569Z,95.80
2018-06-16T16:07:01.275Z,96.00
2018-06-16T16:09:30.190Z,96.60
2018-06-16T16:12:06.743Z,96.00
2018-06-16T16:14:36.182Z,96.30
2018-06-16T16:22:48.170Z,96.70
2018-06-16T16:25:17.610Z,96.50
2018-06-16T16:27:46.798Z,96.80
2018-06-16T16:30:16.176Z,96.00
2018-06-16T16:32:47.647Z,96.30
2018-06-16T16:35:16.718Z,96.50
2018-06-16T16:37:46.043Z,96.10
2018-06-16T16:40:16.287Z,96.30
2018-06-16T16:42:45.683Z,96.20
2018-06-16T16:45:23.445Z,97.40
2018-06-16T16:47:52.331Z,96.60
2018-06-16T16:50:22.157Z,96.20
2018-06-16T16:52:52.275Z,96.10
2018-06-16T16:55:22.766Z,95.90
2018-06-16T16:57:51.632Z,95.80
2018-06-16T17:00:25.312Z,95.40
2018-06-16T17:02:54.327Z,95.70
2018-06-16T17:05:28.203Z,95.50
2018-06-16T17:07:58.349Z,94.70
2018-06-16T17:10:30.739Z,95.40
2018-06-16T17:13:00.095Z,94.40
2018-06-16T17:15:31.308Z,93.90
2018-06-16T17:18:00.618Z,93.90
2018-06-16T17:20:33.662Z,94.20
2018-06-16T17:23:04.940Z,94.40
2018-06-16T17:25:39.526Z,96.20
2018-06-16T17:28:08.945Z,94.40
2018-06-16T17:30:38.703Z,94.20
2018-06-16T17:33:07.551Z,94.00
2018-06-16T17:35:39.649Z,94.20
2018-06-16T17:38:11.355Z,95.10
2018-06-16T17:40:43.509Z,94.90
2018-06-16T17:46:02.448Z,94.90
2018-06-16T17:48:31.723Z,94.80
2018-06-16T17:51:00.659Z,94.60
2018-06-16T17:53:35.810Z,94.30
2018-06-16T17:56:08.166Z,94.50
2018-06-16T17:58:37.453Z,94.20
2018-06-16T18:01:07.579Z,94.90
2018-06-16T18:03:38.678Z,94.60
2018-06-16T18:06:24.307Z,94.50
2018-06-16T18:08:54.007Z,94.50
2018-06-16T18:11:23.654Z,94.80
2018-06-16T18:13:58.098Z,94.80
2018-06-16T18:16:29.258Z,95.40
2018-06-16T18:19:00.277Z,94.80
2018-06-16T18:21:31.286Z,94.70
2018-06-16T18:24:04.439Z,94.70
2018-06-16T18:26:33.327Z,95.10
2018-06-16T18:29:04.595Z,95.20
2018-06-16T18:31:34.486Z,96.00
2018-06-16T18:34:07.277Z,95.00
2018-06-16T18:36:36.503Z,95.00
2018-06-16T18:39:14.601Z,95.40
2018-06-16T18:44:14.217Z,95.50
2018-06-16T18:46:43.187Z,95.20
2018-06-16T18:49:14.357Z,95.20
2018-06-16T18:51:45.080Z,95.40
2018-06-16T18:54:18.586Z,96.10
2018-06-16T18:57:16.409Z,95.30
2018-06-16T19:00:05.950Z,95.70
2018-06-16T19:02:34.977Z,96.10
2018-06-16T19:05:05.433Z,95.50
2018-06-16T19:07:38.153Z,96.00
2018-06-16T19:10:07.251Z,96.30
2018-06-16T19:12:38.440Z,96.50
2018-06-16T19:17:37.702Z,96.40
2018-06-16T19:20:09.596Z,95.90
2018-06-16T19:22:44.175Z,96.10
2018-06-16T19:25:13.867Z,96.70
2018-06-16T19:27:46.187Z,96.20
2018-06-16T19:30:15.403Z,96.20
2018-06-16T19:32:44.623Z,96.10
2018-06-16T19:35:13.891Z,96.70
2018-06-16T19:37:43.319Z,96.50
2018-06-16T19:40:12.580Z,96.90
2018-06-16T19:42:58.216Z,97.00
2018-06-16T19:45:35.725Z,96.50
2018-06-16T19:48:05.112Z,96.20
2018-06-16T19:50:38.235Z,96.30
2018-06-16T19:53:07.347Z,96.50
2018-06-16T19:55:39.737Z,96.70
2018-06-16T19:58:12.411Z,96.40
2018-06-16T20:00:42.367Z,96.60
2018-06-16T20:03:13.168Z,96.70
2018-06-16T20:05:45.167Z,96.50
2018-06-16T20:08:16.169Z,96.80
2018-06-16T20:10:45.751Z,96.10
2018-06-16T20:13:20.416Z,96.00
2018-06-16T20:15:59.550Z,96.00
2018-06-16T20:18:31.237Z,96.70
2018-06-16T20:21:01.604Z,96.30
2018-06-16T20:23:34.373Z,96.60
2018-06-16T20:26:03.640Z,96.30
2018-06-16T20:28:38.649Z,96.80
2018-06-16T20:31:09.176Z,96.50
2018-06-16T20:33:40.659Z,96.40
2018-06-16T20:36:15.688Z,96.20
2018-06-16T20:38:46.143Z,96.30
2018-06-16T20:41:16.240Z,96.70
2018-06-16T20:43:46.359Z,96.90
2018-06-16T20:46:16.738Z,96.90
2018-06-16T20:48:48.269Z,96.70
2018-06-16T20:51:18.757Z,97.00
2018-06-16T20:53:47.880Z,96.50
2018-06-16T20:56:19.147Z,96.30
2018-06-16T20:58:49.014Z,96.70
2018-06-16T21:01:19.662Z,97.30
2018-06-16T21:03:51.411Z,96.90
2018-06-16T21:06:20.353Z,96.60
2018-06-16T21:08:50.987Z,96.80
2018-06-16T21:11:20.784Z,97.20
2018-06-16T21:13:51.762Z,97.30
2018-06-16T21:16:21.169Z,97.00
2018-06-16T21:18:50.656Z,97.00
2018-06-16T21:21:20.339Z,97.20
2018-06-16T21:23:52.110Z,96.80
2018-06-16T21:26:24.421Z,97.50
2018-06-16T21:28:56.255Z,97.20
2018-06-16T21:31:25.686Z,97.30
2018-06-16T21:33:56.413Z,97.50
2018-06-16T21:36:26.273Z,97.80
2018-06-16T21:38:58.887Z,97.20
2018-06-16T21:41:30.533Z,97.00
2018-06-16T21:44:00.606Z,97.20
2018-06-16T21:46:32.356Z,97.10
2018-06-16T21:49:02.221Z,97.30
2018-06-16T21:51:32.041Z,97.20
2018-06-16T21:54:02.102Z,96.90
2018-06-16T21:56:31.650Z,97.40
2018-06-16T21:59:02.439Z,97.50
2018-06-16T22:01:37.334Z,97.80
2018-06-16T22:04:17.561Z,97.80
2018-06-16T22:06:46.753Z,97.90
2018-06-16T22:09:15.834Z,97.70
2018-06-16T22:11:44.752Z,97.90
2018-06-16T22:14:16.621Z,97.50
2018-06-16T22:16:46.364Z,97.70
2018-06-16T22:19:15.733Z,98.30
2018-06-16T22:21:46.326Z,98.40
2018-06-16T22:24:15.581Z,98.10
2018-06-16T22:26:44.524Z,97.30
2018-06-16T22:29:15.350Z,97.60
2018-06-16T22:31:44.753Z,98.00
2018-06-16T22:34:14.719Z,98.20
2018-06-16T22:36:47.894Z,98.20
2018-06-16T22:39:17.338Z,97.30
2018-06-16T22:41:51.671Z,97.40
2018-06-16T22:44:22.429Z,97.90
2018-06-16T22:46:52.609Z,98.00
2018-06-16T22:49:21.756Z,97.80
2018-06-16T22:51:56.930Z,98.00
2018-06-16T22:54:27.459Z,97.40
2018-06-16T22:56:56.586Z,97.80
2018-06-16T22:59:26.195Z,98.10
2018-06-16T23:01:58.505Z,98.10
2018-06-16T23:04:27.519Z,98.00
2018-06-16T23:07:04.413Z,98.00
2018-06-16T23:09:36.376Z,98.10
2018-06-16T23:12:05.620Z,97.60
2018-06-16T23:14:34.742Z,98.00
2018-06-16T23:17:06.292Z,97.60
2018-06-16T23:19:37.676Z,97.50
2018-06-16T23:22:07.847Z,97.50
2018-06-16T23:24:37.837Z,97.50
2018-06-16T23:27:11.173Z,98.10
2018-06-16T23:29:41.361Z,98.20
2018-06-16T23:32:16.498Z,97.70
2018-06-16T23:34:46.189Z,97.90
2018-06-16T23:37:15.517Z,98.10
2018-06-16T23:39:46.101Z,98.30
2018-06-16T23:42:16.219Z,98.20
2018-06-16T23:45:04.726Z,98.30
2018-06-16T23:47:35.228Z,97.50
2018-06-16T23:50:20.295Z,97.50
2018-06-16T23:52:49.247Z,97.70
2018-06-16T23:55:21.986Z,98.10
2018-06-16T23:57:50.962Z,97.80
